Time;durP1;ratioP1;P1;durP2;ratioP2;P2;SDS_P1;SDS_P2;PMS_P1;PMS_P2;Temp;Humidity;BMP_temperature;BMP_pressure;BME280_temperature;BME280_humidity;BME280_pressure;Samples;Min_cycle;Max_cycle;Signal;HPM_P1;HPM_P2
2021/09/10 00:01:54;;;;;;;7.75;3.80;;;21.50;92.60;;;;;;4952700;28;20654;-72
2021/09/10 00:04:20;;;;;;;10.65;4.22;;;21.50;92.70;;;;;;4967008;28;20225;-71
2021/09/10 00:06:45;;;;;;;8.45;3.92;;;21.50;92.70;;;;;;4950482;28;20214;-70
2021/09/10 00:09:11;;;;;;;4.28;3.25;;;21.50;92.90;;;;;;4972664;28;20218;-72
2021/09/10 00:11:37;;;;;;;6.45;4.00;;;21.50;92.90;;;;;;4969414;28;20172;-71
2021/09/10 00:14:02;;;;;;;5.18;3.70;;;21.40;93.10;;;;;;4968880;28;20189;-70
2021/09/10 00:16:28;;;;;;;7.82;3.47;;;21.40;93.20;;;;;;4967504;28;20265;-74
2021/09/10 00:18:54;;;;;;;6.53;3.38;;;21.30;93.30;;;;;;4968056;28;20364;-74
2021/09/10 00:21:19;;;;;;;7.82;3.70;;;21.30;93.40;;;;;;4970169;28;20209;-71
2021/09/10 00:23:45;;;;;;;6.60;3.65;;;21.30;93.50;;;;;;4966950;28;20190;-74
2021/09/10 00:26:11;;;;;;;9.75;4.05;;;21.30;93.70;;;;;;4965726;28;20557;-70
2021/09/10 00:28:36;;;;;;;6.95;4.03;;;21.30;93.80;;;;;;4948249;28;20215;-71
2021/09/10 00:31:03;;;;;;;5.60;3.75;;;21.30;94.00;;;;;;4966595;28;20276;-72
2021/09/10 00:33:28;;;;;;;8.68;4.15;;;21.20;94.00;;;;;;4966155;28;20185;-71
2021/09/10 00:35:55;;;;;;;6.72;4.10;;;21.30;94.20;;;;;;4949573;28;20243;-71
2021/09/10 00:38:21;;;;;;;10.63;4.05;;;21.20;94.20;;;;;;4968239;28;20213;-72
2021/09/10 00:40:50;;;;;;;6.40;4.38;;;21.20;94.40;;;;;;4950223;28;20244;-72
2021/09/10 00:43:15;;;;;;;6.35;4.35;;;21.20;94.40;;;;;;4968007;28;20193;-74
2021/09/10 00:45:47;;;;;;;7.00;4.68;;;21.20;94.50;;;;;;4966071;28;20189;-73
2021/09/10 00:48:20;;;;;;;7.85;4.38;;;21.20;94.50;;;;;;4965648;28;20240;-73
2021/09/10 00:50:47;;;;;;;9.15;5.43;;;21.20;94.60;;;;;;4966632;28;20248;-75
2021/09/10 00:53:13;;;;;;;9.13;4.95;;;21.20;94.60;;;;;;4964884;28;20640;-70
2021/09/10 00:55:40;;;;;;;8.95;4.95;;;21.20;94.70;;;;;;4967491;28;20197;-73
2021/09/10 00:58:06;;;;;;;8.13;5.38;;;21.20;94.60;;;;;;4948319;28;20670;-71
2021/09/10 01:00:32;;;;;;;7.55;5.10;;;21.20;94.70;;;;;;4966478;28;20198;-73
2021/09/10 01:02:58;;;;;;;8.25;5.20;;;21.20;94.70;;;;;;4966080;28;20193;-71
2021/09/10 01:05:23;;;;;;;8.68;4.93;;;21.20;94.70;;;;;;4947198;28;20248;-71
2021/09/10 01:07:51;;;;;;;9.80;5.13;;;21.20;94.80;;;;;;4947179;28;20221;-72
2021/09/10 01:10:18;;;;;;;8.93;5.38;;;21.20;94.80;;;;;;4951636;28;20203;-73
2021/09/10 01:12:43;;;;;;;10.45;5.75;;;21.20;94.80;;;;;;4968149;28;20678;-71
2021/09/10 01:15:10;;;;;;;10.52;5.85;;;21.20;94.90;;;;;;4965611;28;20198;-70
2021/09/10 01:17:37;;;;;;;7.90;5.30;;;21.20;94.90;;;;;;4967589;28;20194;-71
2021/09/10 01:20:06;;;;;;;8.02;5.30;;;21.20;95.00;;;;;;4955212;28;21139;-73
2021/09/10 01:22:33;;;;;;;10.93;5.85;;;21.20;95.00;;;;;;4953112;28;20194;-71
2021/09/10 01:25:11;;;;;;;11.32;5.90;;;21.20;95.00;;;;;;4947775;28;20713;-71
2021/09/10 01:27:54;;;;;;;9.82;5.25;;;21.20;95.00;;;;;;4952065;28;21084;-73
2021/09/10 01:30:23;;;;;;;10.38;5.55;;;21.20;95.00;;;;;;4946705;28;20952;-72
2021/09/10 01:32:50;;;;;;;10.73;5.85;;;21.20;95.10;;;;;;4966968;28;20197;-70
2021/09/10 01:35:16;;;;;;;11.75;5.72;;;21.20;95.10;;;;;;4954861;28;20193;-72
2021/09/10 01:37:42;;;;;;;12.85;5.70;;;21.20;95.10;;;;;;4946806;28;20265;-72
2021/09/10 01:40:09;;;;;;;9.95;5.68;;;21.20;95.10;;;;;;4966350;28;20189;-72
2021/09/10 01:42:35;;;;;;;15.13;5.95;;;21.20;95.10;;;;;;4949803;28;20564;-71
2021/09/10 01:45:01;;;;;;;11.20;5.78;;;21.20;95.10;;;;;;4964403;28;20256;-72
2021/09/10 01:47:27;;;;;;;13.40;5.97;;;21.20;95.10;;;;;;4964372;28;20280;-70
2021/09/10 01:49:52;;;;;;;9.63;5.82;;;21.20;95.10;;;;;;4965609;28;20209;-73
2021/09/10 01:52:18;;;;;;;9.25;6.05;;;21.20;95.10;;;;;;4954905;28;20635;-72
2021/09/10 01:54:44;;;;;;;9.18;5.35;;;21.20;95.10;;;;;;4965614;28;20217;-71
2021/09/10 01:57:10;;;;;;;9.05;5.40;;;21.10;95.10;;;;;;4966480;28;20194;-73
2021/09/10 01:59:35;;;;;;;9.48;5.50;;;21.10;95.10;;;;;;4966849;28;20610;-72
2021/09/10 02:02:01;;;;;;;8.43;5.18;;;21.10;95.20;;;;;;4965231;28;20190;-73
2021/09/10 02:04:26;;;;;;;8.30;5.55;;;21.00;95.20;;;;;;4963701;28;20265;-74
2021/09/10 02:06:52;;;;;;;10.57;5.47;;;21.00;95.30;;;;;;4971877;28;20678;-73
2021/09/10 02:09:18;;;;;;;12.50;5.93;;;21.00;95.40;;;;;;4965834;28;20248;-74
2021/09/10 02:11:44;;;;;;;11.73;5.63;;;21.00;95.50;;;;;;4966814;28;20654;-74
2021/09/10 02:14:09;;;;;;;10.23;4.80;;;20.90;95.50;;;;;;4949632;28;20202;-69
2021/09/10 02:16:35;;;;;;;10.10;5.65;;;20.90;95.70;;;;;;4968010;28;20194;-71
2021/09/10 02:19:01;;;;;;;11.65;6.22;;;20.80;95.80;;;;;;4966210;28;20186;-72
2021/09/10 02:21:27;;;;;;;10.10;6.45;;;20.80;95.90;;;;;;4967871;28;20273;-72
2021/09/10 02:23:52;;;;;;;13.23;5.72;;;20.80;96.00;;;;;;4969340;28;20186;-70
2021/09/10 02:26:18;;;;;;;9.75;5.70;;;20.70;96.10;;;;;;4967195;28;20221;-70
2021/09/10 02:28:43;;;;;;;12.48;6.30;;;20.70;96.20;;;;;;4969025;28;20775;-72
2021/09/10 02:31:09;;;;;;;11.00;6.32;;;20.70;96.30;;;;;;4947623;28;20636;-70
2021/09/10 02:33:35;;;;;;;19.85;7.80;;;20.70;96.40;;;;;;4950358;28;20185;-70
2021/09/10 02:36:00;;;;;;;11.57;7.55;;;20.70;96.60;;;;;;4951750;28;20224;-70
2021/09/10 02:38:26;;;;;;;19.35;8.90;;;20.60;96.60;;;;;;4964740;28;20220;-72
2021/09/10 02:40:52;;;;;;;16.27;9.82;;;20.60;96.70;;;;;;4949655;28;20189;-71
2021/09/10 02:43:18;;;;;;;17.25;10.48;;;20.60;96.80;;;;;;4965041;28;20198;-72
2021/09/10 02:45:44;;;;;;;14.50;9.60;;;20.60;96.90;;;;;;4964689;28;20208;-71
2021/09/10 02:48:10;;;;;;;19.60;11.77;;;20.60;97.00;;;;;;4965458;28;20240;-74
2021/09/10 02:50:36;;;;;;;16.15;10.50;;;20.60;97.10;;;;;;4964399;28;20193;-75
2021/09/10 02:53:03;;;;;;;19.75;11.32;;;20.60;97.20;;;;;;4949528;28;20186;-70
2021/09/10 02:55:29;;;;;;;23.05;12.73;;;20.60;97.30;;;;;;4951370;28;20119;-73
2021/09/10 02:57:55;;;;;;;22.52;12.68;;;20.60;97.40;;;;;;4967755;28;20208;-75
2021/09/10 03:00:21;;;;;;;17.70;12.27;;;20.60;97.60;;;;;;4967852;28;20821;-71
2021/09/10 03:02:49;;;;;;;16.90;11.77;;;20.60;97.70;;;;;;4972572;28;20953;-71
2021/09/10 03:05:15;;;;;;;23.27;12.55;;;20.60;97.80;;;;;;4953312;28;20236;-72
2021/09/10 03:07:41;;;;;;;19.48;13.40;;;20.60;97.90;;;;;;4967651;28;20296;-71
2021/09/10 03:10:08;;;;;;;21.08;14.00;;;20.60;98.00;;;;;;4970061;28;20197;-73
2021/09/10 03:12:35;;;;;;;19.42;13.30;;;20.60;98.10;;;;;;4967004;28;20182;-70
2021/09/10 03:15:03;;;;;;;19.85;13.38;;;20.60;98.20;;;;;;4968521;28;20281;-71
2021/09/10 03:17:29;;;;;;;20.95;13.80;;;20.70;98.30;;;;;;4972480;28;20193;-69
2021/09/10 03:19:55;;;;;;;25.55;16.48;;;20.60;98.30;;;;;;4975580;28;20194;-73
2021/09/10 03:22:20;;;;;;;27.30;15.30;;;20.60;98.40;;;;;;4972025;28;20192;-70
2021/09/10 03:24:47;;;;;;;22.83;15.48;;;20.70;98.50;;;;;;4952318;28;20398;-70
2021/09/10 03:27:13;;;;;;;25.45;15.57;;;20.60;98.60;;;;;;4953755;28;20947;-72
2021/09/10 03:29:39;;;;;;;30.15;16.58;;;20.60;98.70;;;;;;4967588;28;20194;-73
2021/09/10 03:32:05;;;;;;;22.67;16.95;;;20.60;98.80;;;;;;4970249;28;20181;-72
2021/09/10 03:34:31;;;;;;;25.73;19.05;;;20.60;98.80;;;;;;4969245;28;20594;-72
2021/09/10 03:36:57;;;;;;;27.52;18.65;;;20.60;98.90;;;;;;4970516;28;20198;-73
2021/09/10 03:39:23;;;;;;;26.50;19.25;;;20.60;99.00;;;;;;4950578;28;20200;-71
2021/09/10 03:41:48;;;;;;;29.55;18.42;;;20.60;99.10;;;;;;4967794;28;20194;-71
2021/09/10 03:44:14;;;;;;;26.98;19.20;;;20.60;99.30;;;;;;4969084;28;20186;-71
2021/09/10 03:46:39;;;;;;;30.67;20.63;;;20.60;99.30;;;;;;4975960;28;20191;-72
2021/09/10 03:49:05;;;;;;;26.08;19.30;;;20.60;99.40;;;;;;4953036;28;20186;-74
2021/09/10 03:51:31;;;;;;;29.10;20.65;;;20.60;99.60;;;;;;4972198;28;20182;-72
2021/09/10 03:53:56;;;;;;;32.17;23.15;;;20.50;99.70;;;;;;4969009;28;20217;-73
2021/09/10 03:56:23;;;;;;;33.95;23.35;;;20.60;99.80;;;;;;4976353;28;20617;-71
2021/09/10 03:58:48;;;;;;;33.35;24.17;;;20.60;99.90;;;;;;4969927;28;20612;-73
2021/09/10 04:01:14;;;;;;;33.88;24.52;;;20.60;99.90;;;;;;4973977;28;20294;-72
2021/09/10 04:03:40;;;;;;;38.75;24.92;;;20.50;99.90;;;;;;4965951;28;20354;-71
2021/09/10 04:06:08;;;;;;;37.25;26.50;;;20.60;99.90;;;;;;4974788;28;20184;-72
2021/09/10 04:08:34;;;;;;;36.08;27.45;;;20.60;99.90;;;;;;4972405;28;20220;-71
2021/09/10 04:10:59;;;;;;;41.05;28.33;;;20.60;99.90;;;;;;4969836;28;20185;-69
2021/09/10 04:13:26;;;;;;;41.20;27.73;;;20.60;99.90;;;;;;4949300;28;20213;-71
2021/09/10 04:15:51;;;;;;;40.15;29.45;;;20.60;99.90;;;;;;4968582;28;20218;-73
2021/09/10 04:18:17;;;;;;;;;;;20.60;99.90;;;;;;4968424;28;20175;-72
2021/09/10 04:20:42;;;;;;;;;;;20.60;99.90;;;;;;4974187;28;19951;-72
2021/09/10 04:23:08;;;;;;;;;;;20.60;99.90;;;;;;4967351;28;19970;-74
2021/09/10 04:25:33;;;;;;;;;;;20.60;99.90;;;;;;4969389;28;19951;-71
2021/09/10 04:27:59;;;;;;;;;;;20.60;99.90;;;;;;4952595;28;20459;-70
2021/09/10 04:30:24;;;;;;;;;;;20.60;99.90;;;;;;4968711;28;20002;-71
2021/09/10 04:32:50;;;;;;;;;;;20.60;99.90;;;;;;4966161;28;19954;-71
2021/09/10 04:35:15;;;;;;;;;;;20.60;99.90;;;;;;4967284;28;19962;-71
2021/09/10 04:37:41;;;;;;;;;;;20.50;99.90;;;;;;4955810;28;20328;-72
2021/09/10 04:40:07;;;;;;;;;;;20.50;99.90;;;;;;4965934;28;20315;-72
2021/09/10 04:42:33;;;;;;;;;;;20.50;99.90;;;;;;4949004;28;19961;-71
2021/09/10 04:44:59;;;;;;;;;;;20.50;99.90;;;;;;4965814;28;19954;-72
2021/09/10 04:47:27;;;;;;;;;;;20.50;99.90;;;;;;4949126;28;19957;-72
2021/09/10 04:49:53;;;;;;;;;;;20.50;99.90;;;;;;4966278;28;19951;-72
2021/09/10 04:52:19;;;;;;;;;;;20.40;99.90;;;;;;4968371;28;20093;-72
2021/09/10 04:54:45;;;;;;;;;;;20.40;99.90;;;;;;4966450;28;20041;-71
2021/09/10 04:57:10;;;;;;;;;;;20.40;99.90;;;;;;4968489;28;20424;-71
2021/09/10 04:59:36;;;;;;;;;;;20.40;99.90;;;;;;4967144;28;19947;-70
2021/09/10 05:02:01;;;;;;;;;;;20.40;99.90;;;;;;4966844;28;19951;-70
2021/09/10 05:04:27;;;;;;;;;;;20.40;99.90;;;;;;4969470;28;19962;-70
2021/09/10 05:06:53;;;;;;;;;;;20.40;99.90;;;;;;4965782;28;20074;-71
2021/09/10 05:09:18;;;;;;;;;;;20.40;99.90;;;;;;4967819;28;19994;-72
2021/09/10 05:11:44;;;;;;;;;;;20.40;99.90;;;;;;4968130;28;20130;-70
2021/09/10 05:14:10;;;;;;;;;;;20.50;99.90;;;;;;4955772;28;20061;-70
2021/09/10 05:16:36;;;;;;;;;;;20.50;99.90;;;;;;4966800;28;20030;-71
2021/09/10 05:19:02;;;;;;;;;;;20.50;99.90;;;;;;4966270;28;19946;-72
2021/09/10 05:21:27;;;;;;;;;;;20.60;99.90;;;;;;4970909;28;19955;-71
2021/09/10 05:23:53;;;;;;;;;;;20.60;99.90;;;;;;4949221;28;19951;-73
2021/09/10 05:26:18;;;;;;;;;;;20.60;99.90;;;;;;4968379;28;19966;-69
2021/09/10 05:28:45;;;;;;;;;;;20.60;99.90;;;;;;4964878;28;19962;-69
2021/09/10 05:31:11;;;;;;;47.95;31.50;;;20.60;99.90;;;;;;4963186;28;20614;-70
2021/09/10 05:33:37;;;;;;;48.83;33.03;;;20.60;99.90;;;;;;4965600;28;20199;-68
2021/09/10 05:36:03;;;;;;;49.20;31.13;;;20.70;99.90;;;;;;4968054;28;20316;-70
2021/09/10 05:38:28;;;;;;;53.10;32.58;;;20.70;99.90;;;;;;4968878;28;20558;-71
2021/09/10 05:40:54;;;;;;;45.10;28.35;;;20.70;99.90;;;;;;4954056;28;20186;-70
2021/09/10 05:43:20;;;;;;;44.60;31.67;;;20.70;99.90;;;;;;4965599;28;20201;-70
2021/09/10 05:45:45;;;;;;;49.60;31.25;;;20.70;99.90;;;;;;4965614;28;20677;-70
2021/09/10 05:48:11;;;;;;;48.17;31.75;;;20.70;99.90;;;;;;4949058;28;20213;-69
2021/09/10 05:50:37;;;;;;;49.97;32.78;;;20.70;99.90;;;;;;4964510;28;20203;-71
2021/09/10 05:53:03;;;;;;;54.03;34.00;;;20.80;99.90;;;;;;4965302;28;20194;-70
2021/09/10 05:55:28;;;;;;;51.20;32.58;;;20.70;99.90;;;;;;4966097;28;20181;-71
2021/09/10 05:57:54;;;;;;;52.33;30.85;;;20.80;99.90;;;;;;4947770;28;20190;-70
2021/09/10 06:00:20;;;;;;;51.78;32.45;;;20.80;99.90;;;;;;4966497;28;20244;-70
2021/09/10 06:02:45;;;;;;;53.53;34.20;;;20.80;99.90;;;;;;4971538;28;20243;-72
2021/09/10 06:05:11;;;;;;;52.53;33.55;;;20.80;99.90;;;;;;4974898;28;20272;-69
2021/09/10 06:07:37;;;;;;;54.53;34.25;;;20.80;99.90;;;;;;4965499;28;20225;-69
2021/09/10 06:10:03;;;;;;;54.13;35.15;;;20.80;99.90;;;;;;4968731;28;20248;-72
2021/09/10 06:12:29;;;;;;;60.08;34.55;;;20.80;99.90;;;;;;4968429;28;20656;-71
2021/09/10 06:14:54;;;;;;;55.95;35.20;;;20.80;99.90;;;;;;4967405;28;20197;-72
2021/09/10 06:17:20;;;;;;;52.47;33.83;;;20.70;99.90;;;;;;4964918;28;20284;-74
2021/09/10 06:19:46;;;;;;;58.00;36.10;;;20.70;99.90;;;;;;4946870;28;20205;-72
2021/09/10 06:22:13;;;;;;;59.90;35.55;;;20.80;99.90;;;;;;4967680;28;20240;-71
2021/09/10 06:24:39;;;;;;;54.65;34.28;;;20.80;99.90;;;;;;4963392;28;20190;-72
2021/09/10 06:27:05;;;;;;;56.67;36.15;;;20.80;99.90;;;;;;4948435;28;20202;-69
2021/09/10 06:29:30;;;;;;;54.85;33.72;;;20.80;99.90;;;;;;4964604;28;20192;-73
2021/09/10 06:31:56;;;;;;;53.30;32.28;;;20.80;99.90;;;;;;4945462;28;20190;-72
2021/09/10 06:34:22;;;;;;;43.63;28.83;;;20.90;99.90;;;;;;4965016;28;20981;-71
2021/09/10 06:36:51;;;;;;;49.42;31.33;;;20.90;99.90;;;;;;4969235;28;20186;-71
2021/09/10 06:39:17;;;;;;;50.30;29.40;;;20.90;99.90;;;;;;4965976;28;20186;-71
2021/09/10 06:41:44;;;;;;;46.30;29.88;;;20.90;99.90;;;;;;4971540;28;20197;-71
2021/09/10 06:44:10;;;;;;;46.63;29.63;;;21.00;99.90;;;;;;4965167;28;20189;-71
2021/09/10 06:46:36;;;;;;;44.83;30.00;;;21.00;99.90;;;;;;4966221;28;20178;-71
2021/09/10 06:49:03;;;;;;;47.85;32.80;;;21.00;99.90;;;;;;4974803;28;20182;-71
2021/09/10 06:51:29;;;;;;;56.50;32.13;;;21.00;99.90;;;;;;4971570;28;20619;-72
2021/09/10 06:53:54;;;;;;;46.10;30.92;;;21.00;99.90;;;;;;4973234;28;20216;-72
2021/09/10 06:56:20;;;;;;;46.65;31.90;;;21.00;99.90;;;;;;4950005;28;20213;-70
2021/09/10 06:58:46;;;;;;;45.85;32.03;;;21.00;99.90;;;;;;4963731;28;20206;-70
2021/09/10 07:01:12;;;;;;;47.13;31.95;;;21.10;99.90;;;;;;4949034;28;20564;-72
2021/09/10 07:03:37;;;;;;;49.35;32.17;;;21.10;99.90;;;;;;4966346;28;20205;-72
2021/09/10 07:06:03;;;;;;;53.92;32.97;;;21.10;99.90;;;;;;4951948;28;20193;-70
2021/09/10 07:08:31;;;;;;;46.60;31.60;;;21.10;99.90;;;;;;4966780;28;20216;-69
2021/09/10 07:10:57;;;;;;;47.53;32.15;;;21.20;99.90;;;;;;4969424;28;20185;-72
2021/09/10 07:13:23;;;;;;;50.58;32.83;;;21.20;99.90;;;;;;4972320;28;20197;-70
2021/09/10 07:15:49;;;;;;;49.35;33.33;;;21.20;99.90;;;;;;4968560;28;20730;-70
2021/09/10 07:18:14;;;;;;;56.63;35.03;;;21.20;99.90;;;;;;4972331;28;20201;-72
2021/09/10 07:20:40;;;;;;;57.28;34.60;;;21.30;99.90;;;;;;4975118;28;20192;-72
2021/09/10 07:23:06;;;;;;;59.45;35.25;;;21.30;99.90;;;;;;4968871;28;20217;-72
2021/09/10 07:25:31;;;;;;;63.95;38.45;;;21.30;99.90;;;;;;4965670;28;20264;-69
2021/09/10 07:27:57;;;;;;;72.82;38.20;;;21.30;99.90;;;;;;4962968;28;20701;-75
2021/09/10 07:30:23;;;;;;;66.50;36.90;;;21.30;99.90;;;;;;4969887;28;20193;-73
2021/09/10 07:32:48;;;;;;;64.30;38.97;;;21.40;99.90;;;;;;4964070;28;20277;-74
2021/09/10 07:35:14;;;;;;;70.05;39.75;;;21.40;99.90;;;;;;4963445;28;21717;-72
2021/09/10 07:37:40;;;;;;;67.72;38.53;;;21.40;99.90;;;;;;4965643;28;20186;-71
2021/09/10 07:40:06;;;;;;;70.65;38.90;;;21.40;99.90;;;;;;4969017;28;20196;-72
2021/09/10 07:42:32;;;;;;;71.07;40.30;;;21.40;99.90;;;;;;4965941;28;20189;-72
2021/09/10 07:44:58;;;;;;;67.00;39.35;;;21.40;99.90;;;;;;4966815;28;20185;-73
2021/09/10 07:47:26;;;;;;;73.10;39.92;;;21.40;99.90;;;;;;4967291;28;20210;-70
2021/09/10 07:49:52;;;;;;;72.68;39.53;;;21.50;99.90;;;;;;4966710;28;20722;-70
2021/09/10 07:52:17;;;;;;;78.18;40.65;;;21.50;99.90;;;;;;4965240;28;20214;-69
2021/09/10 07:54:43;;;;;;;74.60;41.53;;;21.50;99.90;;;;;;4967561;28;20244;-70
2021/09/10 07:57:11;;;;;;;71.63;40.75;;;21.50;99.90;;;;;;4967134;28;20197;-70
2021/09/10 07:59:37;;;;;;;73.53;41.08;;;21.50;99.90;;;;;;4969179;28;20651;-70
2021/09/10 08:02:03;;;;;;;70.93;39.58;;;21.60;99.90;;;;;;4966093;28;20270;-71
2021/09/10 08:04:28;;;;;;;70.30;39.55;;;21.70;99.90;;;;;;4968230;28;20225;-70
2021/09/10 08:06:54;;;;;;;;;;;21.70;99.90;;;;;;4972742;28;20318;-69
2021/09/10 08:09:19;;;;;;;;;;;21.70;99.90;;;;;;4950530;28;20046;-69
2021/09/10 08:11:45;;;;;;;69.68;37.97;;;21.80;99.90;;;;;;4954872;28;20172;-70
2021/09/10 08:14:11;;;;;;;64.40;37.40;;;21.90;99.90;;;;;;4968443;28;20552;-73
2021/09/10 08:16:36;;;;;;;53.90;34.45;;;21.90;99.90;;;;;;4946331;28;20714;-68
2021/09/10 08:19:03;;;;;;;50.88;33.25;;;21.90;99.90;;;;;;4967010;28;20194;-69
2021/09/10 08:21:29;;;;;;;54.42;32.92;;;21.90;99.90;;;;;;4949503;28;20197;-72
2021/09/10 08:23:54;;;;;;;49.80;30.38;;;22.00;99.90;;;;;;4966440;28;20194;-70
2021/09/10 08:26:20;;;;;;;62.65;33.78;;;22.10;99.90;;;;;;4949865;28;20201;-71
2021/09/10 08:28:46;;;;;;;57.65;32.05;;;22.20;99.90;;;;;;4966649;28;20331;-71
2021/09/10 08:31:13;;;;;;;43.22;30.38;;;22.20;99.90;;;;;;4974810;28;20220;-71
2021/09/10 08:33:38;;;;;;;40.67;26.55;;;22.30;99.90;;;;;;4966710;28;20226;-68
2021/09/10 08:36:04;;;;;;;42.53;27.20;;;22.30;99.90;;;;;;4971231;28;20201;-69
2021/09/10 08:38:30;;;;;;;40.83;26.65;;;22.40;99.90;;;;;;4974660;28;20196;-68
2021/09/10 08:40:58;;;;;;;40.08;26.33;;;22.60;99.90;;;;;;4968542;28;20198;-73
2021/09/10 08:43:25;;;;;;;34.00;22.80;;;22.70;99.90;;;;;;4972949;28;20190;-71
2021/09/10 08:45:51;;;;;;;29.70;22.10;;;22.80;99.90;;;;;;4958284;28;21909;-71
2021/09/10 08:48:18;;;;;;;33.10;21.60;;;23.00;99.90;;;;;;4979921;28;20205;-71
2021/09/10 08:50:46;;;;;;;28.13;19.70;;;23.10;99.90;;;;;;4970368;28;20084;-69
2021/09/10 08:53:12;;;;;;;26.65;18.73;;;23.30;99.90;;;;;;4980513;28;20186;-68
2021/09/10 08:55:37;;;;;;;28.45;18.15;;;23.60;99.90;;;;;;4970944;28;20047;-70
2021/09/10 08:58:03;;;;;;;28.83;17.20;;;23.80;99.90;;;;;;4970464;28;20193;-69
2021/09/10 09:00:30;;;;;;;;;;;24.00;99.90;;;;;;4975845;28;20061;-69
2021/09/10 09:02:57;;;;;;;;;;;24.20;99.90;;;;;;4973495;28;19992;-70
2021/09/10 09:05:26;;;;;;;;;;;24.30;99.30;;;;;;4979854;28;20304;-70
2021/09/10 09:08:12;;;;;;;;;;;24.30;98.80;;;;;;4955219;28;20389;-69
2021/09/10 09:10:53;;;;;;;;;;;24.40;98.40;;;;;;4948400;28;19957;-69
2021/09/10 09:13:19;;;;;;;;;;;24.30;98.10;;;;;;4976176;28;19949;-69
2021/09/10 09:15:45;;;;;;;;;;;24.30;97.90;;;;;;4974062;28;19987;-69
2021/09/10 09:18:11;;;;;;;;;;;24.30;97.70;;;;;;4971915;28;19914;-70
2021/09/10 09:20:36;;;;;;;;;;;24.30;97.50;;;;;;4957394;28;21504;-70
2021/09/10 09:23:02;;;;;;;;;;;24.30;97.30;;;;;;4972092;28;20606;-69
2021/09/10 09:25:35;;;;;;;;;;;24.30;97.30;;;;;;4975215;28;19918;-69
2021/09/10 09:28:14;;;;;;;;;;;24.40;97.30;;;;;;4970203;28;19925;-69
2021/09/10 09:30:40;;;;;;;;;;;24.40;97.30;;;;;;4974527;28;19920;-69
2021/09/10 09:33:06;;;;;;;;;;;24.50;97.10;;;;;;4970579;28;19922;-69
2021/09/10 09:35:32;;;;;;;;;;;24.60;96.90;;;;;;4974156;28;19921;-69
2021/09/10 09:37:58;;;;;;;;;;;24.70;96.70;;;;;;4971533;28;20364;-69
2021/09/10 09:40:30;;;;;;;;;;;24.70;96.50;;;;;;4966474;28;19918;-70
2021/09/10 09:42:56;;;;;;;;;;;24.70;96.20;;;;;;4979125;28;19922;-71
2021/09/10 09:45:24;;;;;;;;;;;24.70;96.00;;;;;;4948793;28;19925;-75
2021/09/10 09:47:50;;;;;;;;;;;24.60;95.90;;;;;;4953681;28;20314;-78
2021/09/10 09:50:20;;;;;;;25.50;12.60;;;24.50;95.90;;;;;;4977847;28;20045;-73
2021/09/10 09:52:51;;;;;;;23.35;15.07;;;24.30;95.80;;;;;;4975778;28;20794;-74
2021/09/10 09:55:17;;;;;;;27.42;17.42;;;24.10;95.90;;;;;;4952206;28;21100;-73
2021/09/10 09:57:44;;;;;;;28.00;18.08;;;23.90;96.00;;;;;;4967656;28;20202;-74
2021/09/10 10:00:11;;;;;;;26.58;17.90;;;23.80;96.30;;;;;;4968625;28;20209;-71
2021/09/10 10:02:37;;;;;;;28.85;19.50;;;23.70;96.50;;;;;;4976916;28;20691;-71
2021/09/10 10:05:05;;;;;;;34.55;18.55;;;23.70;96.70;;;;;;4968177;28;20226;-76
2021/09/10 10:08:02;;;;;;;26.95;19.27;;;23.70;96.90;;;;;;4967916;28;20213;-74
2021/09/10 10:10:33;;;;;;;26.25;19.50;;;23.60;96.90;;;;;;4948135;28;20212;-72
2021/09/10 10:13:01;;;;;;;26.25;20.40;;;23.70;97.00;;;;;;4970574;28;20217;-72
2021/09/10 10:15:28;;;;;;;27.75;20.08;;;23.70;97.10;;;;;;4965921;28;20272;-73
2021/09/10 10:17:56;;;;;;;31.20;21.38;;;23.80;97.00;;;;;;4952054;28;20198;-72
2021/09/10 10:20:44;;;;;;;25.85;19.50;;;23.90;96.80;;;;;;4965815;28;20190;-74
2021/09/10 10:23:41;;;;;;;24.88;19.30;;;24.00;96.60;;;;;;4970637;28;20200;-74
2021/09/10 10:26:27;;;;;;;29.08;21.38;;;24.10;96.50;;;;;;4904398;28;20231;-74
2021/09/10 10:29:02;;;;;;;35.85;21.85;;;24.20;96.40;;;;;;4997040;28;20610;-73
2021/09/10 10:31:55;;;;;;;31.95;22.67;;;24.20;96.30;;;;;;4973800;28;20635;-72
2021/09/10 10:34:21;;;;;;;31.15;23.33;;;24.30;96.20;;;;;;4973150;28;20177;-76
2021/09/10 10:36:46;;;;;;;32.05;23.70;;;24.30;96.10;;;;;;5001141;28;20210;-72
2021/09/10 10:39:13;;;;;;;32.75;24.77;;;24.40;96.00;;;;;;4968861;28;20633;-71
2021/09/10 10:41:50;;;;;;;35.95;24.92;;;24.60;95.70;;;;;;4963056;28;20182;-71
2021/09/10 10:44:34;;;;;;;34.47;24.80;;;24.60;95.40;;;;;;4970406;28;20193;-74
2021/09/10 10:47:06;;;;;;;32.35;23.05;;;24.70;95.20;;;;;;4979010;28;20193;-69
2021/09/10 10:49:36;;;;;;;33.25;24.45;;;24.70;95.00;;;;;;4991852;28;20182;-73
2021/09/10 10:52:41;;;;;;;32.40;25.00;;;24.80;94.90;;;;;;4976154;28;20186;-73
2021/09/10 10:55:30;;;;;;;30.95;23.90;;;24.80;94.70;;;;;;4971212;28;20190;-68
2021/09/10 10:58:22;;;;;;;32.03;23.55;;;24.80;94.50;;;;;;4971294;28;20217;-69
2021/09/10 11:00:49;;;;;;;32.05;23.67;;;24.70;94.30;;;;;;5001415;28;20204;-71
2021/09/10 11:03:15;;;;;;;32.63;24.55;;;24.80;94.20;;;;;;4998985;28;20255;-72
2021/09/10 11:05:50;;;;;;;36.58;26.70;;;24.70;94.00;;;;;;4976519;28;20244;-72
2021/09/10 11:08:35;;;;;;;32.15;25.25;;;24.70;93.80;;;;;;4974040;28;20742;-73
2021/09/10 11:11:02;;;;;;;30.08;22.38;;;24.50;93.70;;;;;;4983971;28;20565;-75
2021/09/10 11:13:28;;;;;;;28.10;20.25;;;24.40;93.60;;;;;;4999149;28;20820;-73
2021/09/10 11:15:55;;;;;;;25.08;18.67;;;24.30;93.70;;;;;;4973965;28;20410;-74
2021/09/10 11:18:24;;;;;;;22.27;16.58;;;24.20;93.90;;;;;;4979999;28;20197;-71
2021/09/10 11:20:51;;;;;;;22.50;15.73;;;24.10;94.10;;;;;;4970796;28;20249;-72
2021/09/10 11:23:25;;;;;;;21.75;16.27;;;24.30;94.30;;;;;;4987652;28;20558;-72
2021/09/10 11:25:53;;;;;;;28.33;16.70;;;24.50;94.20;;;;;;4971863;28;20191;-70
2021/09/10 11:28:19;;;;;;;21.95;14.15;;;24.60;93.90;;;;;;4975037;28;20224;-72
2021/09/10 11:30:47;;;;;;;20.45;13.70;;;24.80;93.60;;;;;;4971082;28;20190;-71
2021/09/10 11:33:13;;;;;;;18.52;13.60;;;24.80;93.20;;;;;;4969312;28;20264;-73
2021/09/10 11:35:40;;;;;;;17.75;12.32;;;24.80;93.20;;;;;;4997923;28;20201;-74
2021/09/10 11:38:25;;;;;;;16.55;10.93;;;24.80;93.10;;;;;;4992623;28;20064;-75
2021/09/10 11:41:03;;;;;;;14.50;9.40;;;25.10;93.30;;;;;;4982938;28;20186;-74
2021/09/10 11:43:35;;;;;;;;;;;25.50;93.00;;;;;;4986296;28;20072;-73
2021/09/10 11:46:12;;;;;;;;;;;26.10;92.10;;;;;;4980324;28;19928;-73
2021/09/10 11:48:40;;;;;;;;;;;26.40;91.20;;;;;;4996315;28;19922;-74
2021/09/10 11:51:07;;;;;;;;;;;26.50;90.40;;;;;;4994501;28;20306;-75
2021/09/10 11:53:35;;;;;;;;;;;26.50;89.80;;;;;;4984895;28;19985;-77
2021/09/10 11:56:08;;;;;;;31.20;6.47;;;26.50;88.80;;;;;;4982009;28;20631;-72
2021/09/10 11:58:49;;;;;;;12.80;5.55;;;26.30;88.60;;;;;;4983638;28;20722;-73
2021/09/10 12:01:36;;;;;;;8.75;5.43;;;26.40;88.20;;;;;;4975898;28;20240;-75
2021/09/10 12:04:05;;;;;;;9.75;5.10;;;26.40;87.90;;;;;;4980343;28;20232;-71
2021/09/10 12:06:53;;;;;;;9.32;4.93;;;26.40;87.70;;;;;;4996375;28;20269;-70
2021/09/10 12:09:29;;;;;;;14.77;5.20;;;26.50;87.40;;;;;;4979770;28;20200;-70
2021/09/10 12:11:59;;;;;;;8.30;4.68;;;26.50;86.80;;;;;;4982717;28;20614;-70
2021/09/10 12:14:31;;;;;;;;;;;26.50;86.20;;;;;;4980224;28;20279;-71
2021/09/10 12:17:04;;;;;;;;;;;26.50;86.00;;;;;;4970935;28;20054;-71
2021/09/10 12:19:30;;;;;;;;;;;26.50;85.60;;;;;;4970515;28;19921;-71
2021/09/10 12:21:56;;;;;;;9.63;5.22;;;26.40;85.70;;;;;;4999147;28;20424;-72
2021/09/10 12:24:22;;;;;;;11.70;6.05;;;26.40;86.00;;;;;;4997480;28;20186;-74
2021/09/10 12:26:54;;;;;;;17.33;6.07;;;26.50;85.70;;;;;;4970528;28;20235;-71
2021/09/10 12:29:24;;;;;;;19.48;6.05;;;26.50;85.30;;;;;;4977735;28;20182;-72
2021/09/10 12:31:51;;;;;;;14.48;5.70;;;26.60;84.90;;;;;;4967664;28;20193;-72
2021/09/10 12:34:17;;;;;;;;;;;26.60;84.30;;;;;;4967684;28;20201;-71
2021/09/10 12:36:45;;;;;;;;;;;26.50;84.20;;;;;;4985691;28;20032;-71
2021/09/10 12:39:10;;;;;;;8.50;5.32;;;26.40;83.90;;;;;;4981030;28;20368;-69
2021/09/10 12:41:37;;;;;;;12.35;6.60;;;26.20;83.90;;;;;;4984121;28;20192;-71
2021/09/10 12:44:09;;;;;;;13.52;7.20;;;26.00;84.00;;;;;;4976005;28;20305;-73
2021/09/10 12:46:37;;;;;;;8.75;5.70;;;25.90;84.70;;;;;;4973544;28;20185;-71
2021/09/10 12:49:04;;;;;;;10.30;6.10;;;25.70;84.90;;;;;;4981851;28;20236;-75
2021/09/10 12:51:31;;;;;;;12.32;6.55;;;25.60;85.10;;;;;;4992847;28;20213;-70
2021/09/10 12:53:58;;;;;;;10.60;6.65;;;25.50;85.60;;;;;;4970648;28;20189;-70